Time;durP1;ratioP1;P1;durP2;ratioP2;P2;SDS_P1;SDS_P2;PMS_P1;PMS_P2;Temp;Humidity;BMP_temperature;BMP_pressure;BME280_temperature;BME280_humidity;BME280_pressure;Samples;Min_cycle;Max_cycle;Signal;HPM_P1;HPM_P2
2022/02/14 00:00:15;;;;;;;5.65;3.92;;;;;;;-5.38;73.35;99305.81;4997814;28;20073;-83
2022/02/14 00:02:41;;;;;;;5.68;4.38;;;;;;;-5.32;72.88;99317.91;5000509;28;20046;-82
2022/02/14 00:05:08;;;;;;;5.43;3.72;;;;;;;-5.25;72.73;99320.38;5017137;28;20038;-83
2022/02/14 00:07:34;;;;;;;4.15;3.53;;;;;;;-5.26;72.17;99321.28;4986505;28;20038;-84
2022/02/14 00:10:00;;;;;;;5.57;3.55;;;;;;;-5.29;72.16;99323.94;4997135;28;20057;-84
2022/02/14 00:12:26;;;;;;;7.38;3.60;;;;;;;-5.27;72.17;99332.56;4996238;28;20038;-85
2022/02/14 00:14:51;;;;;;;5.75;3.45;;;;;;;-5.38;72.33;99335.38;4996209;28;20088;-85
2022/02/14 00:17:18;;;;;;;5.47;3.97;;;;;;;-5.43;72.26;99333.72;4994594;28;20093;-86
2022/02/14 00:19:50;;;;;;;5.93;3.83;;;;;;;-5.49;72.56;99336.41;4993905;28;20042;-87
2022/02/14 00:22:21;;;;;;;4.45;3.88;;;;;;;-5.45;72.44;99345.91;4978968;28;20411;-85
2022/02/14 00:24:53;;;;;;;6.13;3.65;;;;;;;-5.41;72.29;99366.66;4997454;28;20410;-85
2022/02/14 00:27:20;;;;;;;5.85;4.05;;;;;;;-5.38;72.56;99360.53;4978969;28;20053;-85
2022/02/14 00:29:46;;;;;;;6.90;4.22;;;;;;;-5.43;71.96;99372.78;5010610;28;20111;-85
2022/02/14 00:32:13;;;;;;;5.07;3.88;;;;;;;-5.40;71.70;99364.91;4994059;28;20112;-85
2022/02/14 00:34:38;;;;;;;6.10;4.13;;;;;;;-5.48;71.36;99374.59;4993563;28;20473;-86
2022/02/14 00:37:06;;;;;;;5.93;4.40;;;;;;;-5.56;71.99;99379.06;4961623;28;20054;-84
2022/02/14 00:39:32;;;;;;;6.13;3.42;;;;;;;-5.63;71.98;99386.97;4977720;28;20034;-85
2022/02/14 00:41:59;;;;;;;8.55;4.30;;;;;;;-5.52;71.73;99388.56;4993557;28;20050;-86
2022/02/14 00:44:25;;;;;;;3.03;2.50;;;;;;;-5.63;71.75;99402.56;4992969;28;20050;-86
2022/02/14 00:46:51;;;;;;;6.97;3.75;;;;;;;-5.73;71.73;99392.31;4977132;28;20512;-85
2022/02/14 00:49:17;;;;;;;4.72;3.40;;;;;;;-5.70;71.88;99405.28;4993384;28;20405;-85
2022/02/14 00:51:43;;;;;;;6.30;3.90;;;;;;;-5.79;72.07;99401.06;4993436;28;20105;-85
2022/02/14 00:54:10;;;;;;;5.28;3.42;;;;;;;-5.88;72.04;99401.19;4993226;28;20386;-86
2022/02/14 00:56:36;;;;;;;5.30;3.55;;;;;;;-5.97;72.22;99403.94;4993354;28;20046;-85
2022/02/14 00:59:02;;;;;;;6.28;4.10;;;;;;;-5.95;72.48;99400.41;4992937;28;20516;-85
2022/02/14 01:01:29;;;;;;;5.72;3.78;;;;;;;-5.92;72.20;99399.53;4992638;28;20387;-84
2022/02/14 01:03:55;;;;;;;5.88;4.07;;;;;;;-5.84;72.19;99408.06;4977091;28;20542;-86
2022/02/14 01:06:21;;;;;;;7.68;4.85;;;;;;;-5.78;72.00;99408.00;4976831;28;20040;-85
2022/02/14 01:08:47;;;;;;;7.65;4.47;;;;;;;-5.72;71.72;99405.28;4993862;28;20077;-85
2022/02/14 01:11:13;;;;;;;6.60;4.20;;;;;;;-5.57;71.54;99411.19;4977479;28;20046;-84
2022/02/14 01:13:40;;;;;;;12.23;4.57;;;;;;;-5.70;71.06;99400.94;4993354;28;20050;-85
2022/02/14 01:16:06;;;;;;;8.52;4.53;;;;;;;-5.76;71.89;99406.22;4993422;28;20085;-84
2022/02/14 01:18:32;;;;;;;5.85;4.32;;;;;;;-5.72;71.82;99422.66;4995873;28;20137;-83
2022/02/14 01:20:58;;;;;;;7.00;4.50;;;;;;;-5.72;71.82;99425.25;5003937;28;20038;-84
2022/02/14 01:23:24;;;;;;;10.35;4.40;;;;;;;-5.76;71.94;99427.03;4987707;28;20042;-82
2022/02/14 01:25:50;;;;;;;9.57;4.68;;;;;;;-5.65;71.59;99429.50;5005689;28;20128;-85
2022/02/14 01:28:16;;;;;;;7.00;5.00;;;;;;;-5.61;71.62;99432.03;5001396;28;20081;-84
2022/02/14 01:30:42;;;;;;;4.72;4.03;;;;;;;-5.57;71.27;99434.63;4996285;28;20141;-88
2022/02/14 01:33:08;;;;;;;7.63;4.18;;;;;;;-5.70;71.40;99447.81;4994536;28;20082;-84
2022/02/14 01:35:34;;;;;;;5.35;4.00;;;;;;;-5.76;71.34;99440.06;4992664;28;20054;-84
2022/02/14 01:38:00;;;;;;;5.43;4.05;;;;;;;-5.70;71.15;99453.00;4976659;28;20062;-86
2022/02/14 01:40:26;;;;;;;5.63;3.72;;;;;;;-5.79;71.09;99462.66;4994313;28;20563;-83
2022/02/14 01:42:52;;;;;;;3.83;3.20;;;;;;;-6.00;71.31;99463.81;4977605;28;20039;-86
2022/02/14 01:45:18;;;;;;;3.25;2.53;;;;;;;-6.22;71.18;99456.25;4993941;28;20611;-82
2022/02/14 01:47:44;;;;;;;8.63;4.50;;;;;;;-6.37;71.22;99469.41;4976441;28;20085;-83
2022/02/14 01:50:12;;;;;;;7.28;4.70;;;;;;;-6.47;71.44;99476.47;4976484;28;20078;-85
2022/02/14 01:52:38;;;;;;;10.68;3.60;;;;;;;-6.60;71.71;99482.63;4976661;28;20089;-85
2022/02/14 01:55:05;;;;;;;4.40;3.58;;;;;;;-6.74;72.02;99492.28;4992638;28;20051;-86
2022/02/14 01:57:31;;;;;;;4.85;4.13;;;;;;;-6.87;72.12;99494.13;4976438;28;20049;-84
2022/02/14 02:00:00;;;;;;;5.10;3.88;;;;;;;-6.87;72.40;99494.13;4961326;28;20038;-88
2022/02/14 02:02:26;;;;;;;5.23;3.90;;;;;;;-6.95;72.55;99490.72;4994713;28;20050;-86
2022/02/14 02:04:52;;;;;;;7.78;4.03;;;;;;;-7.05;72.57;99496.84;4960712;28;20797;-85
2022/02/14 02:07:18;;;;;;;5.32;4.15;;;;;;;-7.12;73.20;99499.47;4960585;28;20053;-83
2022/02/14 02:09:45;;;;;;;3.88;3.28;;;;;;;-7.14;73.34;99496.03;4999557;28;20057;-85
2022/02/14 02:12:22;;;;;;;3.83;3.35;;;;;;;-7.19;73.50;99502.09;4954069;28;20042;-84
2022/02/14 02:14:50;;;;;;;3.83;3.28;;;;;;;-7.27;73.67;99503.88;5005244;28;20105;-83
2022/02/14 02:17:16;;;;;;;6.00;4.75;;;;;;;-7.24;73.50;99502.13;4980171;28;20050;-86
2022/02/14 02:19:42;;;;;;;12.57;5.93;;;;;;;-7.22;73.52;99521.19;4964514;28;20057;-84
2022/02/14 02:22:08;;;;;;;4.32;3.42;;;;;;;-7.27;73.72;99509.09;4998154;28;20042;-88
2022/02/14 02:25:00;;;;;;;9.32;5.97;;;;;;;-7.22;73.67;99517.69;4984442;28;20053;-85
2022/02/14 02:27:29;;;;;;;7.57;3.67;;;;;;;-7.34;73.65;99509.09;5008365;28;20085;-83
2022/02/14 02:29:56;;;;;;;6.82;5.10;;;;;;;-7.41;74.02;99522.13;5007980;28;20104;-85
2022/02/14 02:32:22;;;;;;;5.53;3.17;;;;;;;-7.45;74.06;99510.03;4958306;28;20132;-85
2022/02/14 02:34:48;;;;;;;4.80;3.47;;;;;;;-7.45;74.54;99525.63;5008930;28;20188;-87
2022/02/14 02:37:16;;;;;;;17.15;4.88;;;;;;;-7.43;74.63;99527.34;4984787;28;20058;-88
2022/02/14 02:39:42;;;;;;;7.47;4.88;;;;;;;-7.48;74.43;99520.47;4982796;28;20046;-85
2022/02/14 02:42:09;;;;;;;13.80;5.05;;;;;;;-7.43;74.36;99529.09;4987723;28;20462;-83
2022/02/14 02:44:35;;;;;;;6.07;4.10;;;;;;;-7.44;74.82;99553.31;5012483;28;20401;-88
2022/02/14 02:47:09;;;;;;;5.07;4.13;;;;;;;-7.42;75.00;99536.84;4995687;28;20064;-83
2022/02/14 02:49:35;;;;;;;6.10;4.22;;;;;;;-7.42;75.03;99552.44;4995067;28;20070;-85
2022/02/14 02:52:03;;;;;;;7.10;3.65;;;;;;;-7.38;75.03;99555.88;5011770;28;20038;-84
2022/02/14 02:54:28;;;;;;;5.20;4.35;;;;;;;-7.37;74.87;99560.19;4977777;28;20057;-85
2022/02/14 02:56:55;;;;;;;6.45;4.18;;;;;;;-7.32;74.82;99557.59;4977347;28;20074;-86
2022/02/14 02:59:22;;;;;;;11.98;6.57;;;;;;;-7.22;74.71;99573.13;4993256;28;20077;-87
2022/02/14 03:01:48;;;;;;;7.88;3.85;;;;;;;-7.28;74.53;99552.38;4976029;28;20118;-84
2022/02/14 03:04:16;;;;;;;12.63;6.35;;;;;;;-7.07;74.13;99563.50;4996634;28;20043;-87
2022/02/14 03:06:42;;;;;;;9.77;5.82;;;;;;;-6.99;73.79;99572.16;4967981;28;20134;-87
2022/02/14 03:09:08;;;;;;;7.53;4.28;;;;;;;-6.95;73.68;99566.06;4961431;28;20093;-90
2022/02/14 03:11:35;;;;;;;5.32;3.60;;;;;;;-6.97;73.56;99562.59;4962081;28;20046;-83
2022/02/14 03:14:01;;;;;;;11.15;5.85;;;;;;;-6.87;73.24;99577.28;4961633;28;20567;-84
2022/02/14 03:16:27;;;;;;;5.82;3.45;;;;;;;-6.98;73.28;99573.88;4960866;28;20549;-86
2022/02/14 03:18:53;;;;;;;8.82;4.38;;;;;;;-7.11;73.44;99573.94;4961792;28;20039;-83
2022/02/14 03:21:22;;;;;;;7.63;4.70;;;;;;;-7.18;73.40;99572.25;4977143;28;20572;-83
2022/02/14 03:23:49;;;;;;;4.05;3.17;;;;;;;-7.23;73.75;99594.75;4977675;28;20066;-84
2022/02/14 03:26:17;;;;;;;8.70;4.43;;;;;;;-7.30;73.63;99587.00;4961672;28;20050;-84
2022/02/14 03:28:47;;;;;;;6.03;4.68;;;;;;;-7.49;73.98;99591.41;4944292;28;20082;-91
2022/02/14 03:31:13;;;;;;;5.60;4.22;;;;;;;-7.60;74.50;99615.69;4960313;28;20491;-84
2022/02/14 03:33:43;;;;;;;6.53;5.13;;;;;;;-7.86;74.95;99602.75;4975582;28;20051;-85
2022/02/14 03:36:10;;;;;;;7.53;5.03;;;;;;;-8.03;75.02;99608.84;4976253;28;20053;-86
2022/02/14 03:38:36;;;;;;;8.77;5.03;;;;;;;-8.10;75.43;99616.59;4992101;28;20403;-89
2022/02/14 03:41:02;;;;;;;5.20;4.20;;;;;;;-8.28;75.35;99621.78;4979418;28;20082;-84
2022/02/14 03:43:28;;;;;;;11.93;6.03;;;;;;;-8.31;75.66;99619.22;4984339;28;20100;-84
2022/02/14 03:45:54;;;;;;;10.27;5.35;;;;;;;-8.35;75.82;99618.34;4995302;28;20022;-84
2022/02/14 03:48:23;;;;;;;8.85;4.43;;;;;;;-8.35;75.72;99613.19;4970198;28;20186;-82
2022/02/14 03:50:55;;;;;;;5.63;4.13;;;;;;;-8.41;75.75;99618.38;4991760;28;20058;-92
2022/02/14 03:53:22;;;;;;;10.65;5.18;;;;;;;-8.51;75.91;99614.03;4991931;28;20137;-86
2022/02/14 03:55:48;;;;;;;6.50;4.40;;;;;;;-8.35;77.17;99622.66;4975127;28;20070;-82
2022/02/14 03:58:14;;;;;;;4.97;3.83;;;;;;;-8.41;76.19;99633.06;4929100;28;20075;-86
2022/02/14 04:00:41;;;;;;;9.50;6.07;;;;;;;-8.44;76.05;99627.88;4980284;28;20116;-85
2022/02/14 04:03:07;;;;;;;7.20;3.55;;;;;;;-8.52;75.94;99634.78;4960941;28;20047;-84
2022/02/14 04:05:33;;;;;;;10.20;5.22;;;;;;;-8.54;76.32;99637.34;4975347;28;20085;-88
2022/02/14 04:07:59;;;;;;;6.93;4.60;;;;;;;-8.55;76.04;99625.28;4960160;28;20050;-88
2022/02/14 04:10:26;;;;;;;9.88;6.00;;;;;;;-8.37;77.47;99633.03;4962828;28;20131;-87
2022/02/14 04:12:53;;;;;;;10.25;3.13;;;;;;;-8.37;76.32;99646.00;4979447;28;20035;-87
2022/02/14 04:15:19;;;;;;;12.20;4.60;;;;;;;-8.35;76.01;99643.41;4975910;28;20430;-87
2022/02/14 04:17:45;;;;;;;7.82;4.95;;;;;;;-8.39;75.55;99639.09;4975332;28;20043;-89
2022/02/14 04:20:11;;;;;;;3.50;3.20;;;;;;;-8.40;75.33;99651.22;4986701;28;20521;-86
2022/02/14 04:22:37;;;;;;;10.23;5.45;;;;;;;-8.33;75.58;99662.44;4991932;28;20473;-87
2022/02/14 04:25:04;;;;;;;5.25;3.13;;;;;;;-8.31;75.29;99655.53;4977553;28;20046;-88
2022/02/14 04:27:30;;;;;;;3.78;3.00;;;;;;;-8.21;75.17;99653.78;4994785;28;20039;-92
2022/02/14 04:29:56;;;;;;;8.90;5.88;;;;;;;-8.01;75.33;99662.44;4993573;28;20042;-84
2022/02/14 04:32:22;;;;;;;10.30;6.65;;;;;;;-7.75;74.80;99662.41;4993913;28;20402;-85
2022/02/14 04:34:48;;;;;;;8.82;3.90;;;;;;;-7.73;73.49;99665.88;4976892;28;20054;-88
2022/02/14 04:37:16;;;;;;;5.50;3.47;;;;;;;-7.75;73.62;99661.53;4976529;28;20152;-85
2022/02/14 04:39:43;;;;;;;7.70;4.65;;;;;;;-7.76;73.61;99670.22;4993342;28;20046;-84
2022/02/14 04:42:09;;;;;;;13.50;5.13;;;;;;;-7.79;73.57;99665.88;4977121;28;20065;-85
2022/02/14 04:44:35;;;;;;;10.50;6.10;;;;;;;-7.67;73.75;99665.88;4977484;28;20509;-88
2022/02/14 04:47:01;;;;;;;5.28;3.45;;;;;;;-7.65;73.55;99668.47;4978204;28;20042;-86
2022/02/14 04:49:27;;;;;;;7.68;4.32;;;;;;;-7.55;73.59;99669.31;4995346;28;20038;-88
2022/02/14 04:51:53;;;;;;;5.60;3.50;;;;;;;-7.39;73.26;99689.19;4993127;28;20072;-85
2022/02/14 04:54:19;;;;;;;5.80;4.15;;;;;;;-7.32;72.57;99677.06;4976726;28;20054;-85
2022/02/14 04:56:45;;;;;;;8.88;5.85;;;;;;;-7.10;72.54;99683.91;4993316;28;20046;-86
2022/02/14 04:59:14;;;;;;;8.35;6.18;;;;;;;-6.79;72.10;99692.44;4992877;28;20034;-84
2022/02/14 05:01:41;;;;;;;11.30;6.22;;;;;;;-6.60;70.86;99696.69;4993743;28;20049;-85
2022/02/14 05:04:07;;;;;;;5.80;3.53;;;;;;;-6.52;70.46;99703.59;4976498;28;20050;-86
2022/02/14 05:06:33;;;;;;;9.95;5.72;;;;;;;-6.30;70.41;99710.41;4992448;28;20081;-84
2022/02/14 05:08:59;;;;;;;11.90;6.57;;;;;;;-6.12;70.11;99702.47;4976837;28;20089;-89
2022/02/14 05:11:25;;;;;;;11.20;5.90;;;;;;;-5.83;69.01;99710.91;4960321;28;20402;-85
2022/02/14 05:13:51;;;;;;;6.05;4.22;;;;;;;-5.71;68.20;99710.81;4976449;28;20497;-86
2022/02/14 05:16:23;;;;;;;9.57;5.95;;;;;;;-5.77;67.70;99722.13;4992944;28;20088;-85
2022/02/14 05:18:49;;;;;;;5.20;3.00;;;;;;;-5.89;67.45;99727.44;4993241;28;20049;-85
2022/02/14 05:21:16;;;;;;;4.45;3.50;;;;;;;-6.13;68.18;99734.59;4993674;28;20528;-82
2022/02/14 05:23:42;;;;;;;23.35;5.13;;;;;;;-6.05;68.42;99728.47;4976941;28;20046;-87
2022/02/14 05:26:08;;;;;;;6.93;3.35;;;;;;;-6.18;68.44;99743.28;4993253;28;20565;-85
2022/02/14 05:28:34;;;;;;;17.73;5.18;;;;;;;-6.11;68.66;99738.03;4994118;28;20043;-90
2022/02/14 05:31:01;;;;;;;17.80;4.43;;;;;;;-5.95;68.93;99737.91;4993275;28;20049;-87
2022/02/14 05:33:27;;;;;;;7.60;5.28;;;;;;;-5.65;68.58;99735.03;4992828;28;20050;-86
2022/02/14 05:35:53;;;;;;;7.07;4.78;;;;;;;-5.49;67.82;99727.09;4962319;28;20050;-86
2022/02/14 05:38:19;;;;;;;7.93;4.60;;;;;;;-5.46;67.23;99740.09;5013420;28;20136;-85
2022/02/14 05:40:45;;;;;;;11.60;6.18;;;;;;;-5.49;67.06;99745.31;4996784;28;20050;-83
2022/02/14 05:43:11;;;;;;;8.95;5.43;;;;;;;-5.54;66.84;99747.97;5014009;28;20053;-88
2022/02/14 05:45:37;;;;;;;6.78;5.25;;;;;;;-5.34;67.13;99758.25;4980070;28;20061;-85
2022/02/14 05:48:03;;;;;;;9.95;6.10;;;;;;;-5.13;66.98;99758.03;5015558;28;20056;-89
2022/02/14 05:50:29;;;;;;;8.98;6.45;;;;;;;-4.75;66.95;99756.75;4983809;28;20095;-88
2022/02/14 05:52:55;;;;;;;4.97;3.45;;;;;;;-4.88;64.93;99757.78;4983656;28;20050;-85
2022/02/14 05:55:21;;;;;;;8.45;5.30;;;;;;;-5.02;65.21;99754.44;4999890;28;20552;-85
2022/02/14 05:57:47;;;;;;;11.65;5.28;;;;;;;-4.73;65.54;99762.81;5017108;28;20049;-85
2022/02/14 06:00:14;;;;;;;9.90;5.43;;;;;;;-4.85;64.76;99773.41;4983075;28;20505;-88
2022/02/14 06:02:40;;;;;;;6.45;4.68;;;;;;;-5.14;64.94;99786.72;4984413;28;20085;-87
2022/02/14 06:05:06;;;;;;;8.05;5.15;;;;;;;-5.41;65.75;99782.63;5001130;28;20038;-89
2022/02/14 06:07:32;;;;;;;26.73;5.35;;;;;;;-5.53;66.72;99777.50;4952948;28;20485;-89
2022/02/14 06:09:58;;;;;;;6.93;4.85;;;;;;;-5.61;66.97;99769.75;4983384;28;20497;-83
2022/02/14 06:12:24;;;;;;;6.85;4.50;;;;;;;-5.59;66.83;99777.56;5016609;28;20046;-82
2022/02/14 06:14:50;;;;;;;7.82;4.32;;;;;;;-5.76;67.27;99785.47;4951179;28;20038;-83
2022/02/14 06:17:17;;;;;;;6.22;4.43;;;;;;;-5.64;67.31;99786.28;4999578;28;20046;-83
2022/02/14 06:19:43;;;;;;;7.45;4.22;;;;;;;-5.56;66.96;99798.38;5017193;28;20049;-90
2022/02/14 06:22:09;;;;;;;5.53;3.25;;;;;;;-5.59;66.60;99785.38;4983078;28;20459;-84
2022/02/14 06:24:35;;;;;;;4.53;3.13;;;;;;;-5.80;66.94;99789.84;4999805;28;20099;-87
2022/02/14 06:27:01;;;;;;;6.55;4.18;;;;;;;-5.88;67.48;99792.50;4999785;28;20085;-87
2022/02/14 06:29:27;;;;;;;7.85;4.32;;;;;;;-5.80;67.60;99799.41;4983299;28;20511;-85
2022/02/14 06:31:53;;;;;;;8.13;5.30;;;;;;;-5.73;67.15;99804.56;4998840;28;20049;-85
2022/02/14 06:34:20;;;;;;;6.63;4.45;;;;;;;-5.67;67.21;99804.53;4983353;28;20045;-86
2022/02/14 06:36:46;;;;;;;4.55;2.97;;;;;;;-5.66;66.95;99823.59;4979503;28;20061;-86
2022/02/14 06:39:12;;;;;;;9.15;5.20;;;;;;;-5.56;67.23;99827.03;4998236;28;20050;-85
2022/02/14 06:41:38;;;;;;;6.85;4.97;;;;;;;-5.53;67.21;99819.16;4995917;28;20048;-88
2022/02/14 06:44:04;;;;;;;6.82;4.43;;;;;;;-5.31;66.70;99836.38;4996905;28;20129;-85
2022/02/14 06:46:30;;;;;;;7.40;5.30;;;;;;;-5.25;66.67;99841.53;4996702;28;20169;-86
2022/02/14 06:48:57;;;;;;;9.23;5.97;;;;;;;-5.23;66.39;99833.69;4995738;28;20068;-85
2022/02/14 06:51:23;;;;;;;8.75;4.80;;;;;;;-5.10;66.08;99819.69;4963195;28;20493;-85
2022/02/14 06:53:49;;;;;;;9.23;5.63;;;;;;;-4.94;65.74;99846.47;4995249;28;20046;-86
2022/02/14 06:56:15;;;;;;;13.32;6.15;;;;;;;-4.65;65.67;99848.81;4996488;28;20050;-85
2022/02/14 06:58:43;;;;;;;11.38;5.70;;;;;;;-4.55;64.95;99832.19;4979096;28;20042;-88
2022/02/14 07:01:09;;;;;;;11.13;5.10;;;;;;;-4.65;64.86;99849.66;4963984;28;20050;-87
2022/02/14 07:03:35;;;;;;;8.93;4.93;;;;;;;-4.75;65.39;99845.41;4979793;28;20391;-85
2022/02/14 07:06:06;;;;;;;5.45;4.45;;;;;;;-4.79;65.75;99856.75;4982157;28;20351;-85
2022/02/14 07:08:32;;;;;;;6.65;4.88;;;;;;;-4.90;66.78;99858.59;4979862;28;20119;-86
2022/02/14 07:10:59;;;;;;;11.55;6.03;;;;;;;-4.66;66.89;99858.38;4997524;28;20077;-88
2022/02/14 07:13:25;;;;;;;10.90;7.10;;;;;;;-4.54;66.04;99864.34;4964427;28;20053;-84
2022/02/14 07:15:51;;;;;;;15.23;7.22;;;;;;;-4.18;65.90;99855.22;5001050;28;20042;-86
2022/02/14 07:18:17;;;;;;;12.25;6.30;;;;;;;-3.98;64.55;99863.69;4954304;28;20052;-86
2022/02/14 07:20:43;;;;;;;10.02;6.25;;;;;;;-3.47;65.03;99863.00;5003460;28;20127;-87
2022/02/14 07:23:09;;;;;;;8.35;5.38;;;;;;;-3.24;63.70;99863.50;4969311;28;20061;-86
2022/02/14 07:25:35;;;;;;;12.07;7.00;;;;;;;-3.27;62.66;99863.56;4986918;28;20513;-86
2022/02/14 07:28:01;;;;;;;14.82;6.07;;;;;;;-3.35;62.21;99873.25;4972633;28;20050;-84
2022/02/14 07:30:27;;;;;;;5.72;3.58;;;;;;;-3.78;61.97;99880.84;4985359;28;20042;-86
2022/02/14 07:32:53;;;;;;;6.50;3.80;;;;;;;-3.96;62.31;99879.34;4997436;28;20038;-87
2022/02/14 07:35:20;;;;;;;9.50;4.97;;;;;;;-3.98;62.59;99866.31;4981934;28;20203;-85
2022/02/14 07:37:46;;;;;;;7.95;5.35;;;;;;;-3.72;62.43;99858.13;4967548;28;20104;-85
2022/02/14 07:40:13;;;;;;;8.45;4.72;;;;;;;-3.70;61.84;99866.78;4952232;28;20042;-86
2022/02/14 07:42:39;;;;;;;10.45;5.70;;;;;;;-3.80;62.18;99873.03;4984555;28;20054;-86
2022/02/14 07:45:06;;;;;;;7.70;5.47;;;;;;;-3.68;62.36;99878.09;4983851;28;20578;-86
2022/02/14 07:47:31;;;;;;;7.10;5.60;;;;;;;-3.54;61.73;99895.31;4966474;28;20038;-86
2022/02/14 07:49:57;;;;;;;6.57;4.57;;;;;;;-3.69;61.52;99896.38;4946066;28;20470;-86
2022/02/14 07:52:23;;;;;;;6.35;3.67;;;;;;;-3.90;61.78;99897.53;4994167;28;20133;-87
2022/02/14 07:54:51;;;;;;;7.95;4.80;;;;;;;-3.76;61.97;99885.19;4995450;28;20521;-87
2022/02/14 07:57:17;;;;;;;5.95;5.03;;;;;;;-3.66;61.89;99898.97;4979524;28;20046;-86
2022/02/14 07:59:44;;;;;;;8.40;5.78;;;;;;;-3.41;61.28;99896.88;4979352;28;20042;-85
2022/02/14 08:02:10;;;;;;;6.05;3.35;;;;;;;-3.60;60.42;99905.88;4994826;28;20054;-86
2022/02/14 08:04:36;;;;;;;6.82;3.75;;;;;;;-3.87;61.01;99913.19;4947068;28;20042;-90
2022/02/14 08:07:04;;;;;;;5.25;3.78;;;;;;;-4.03;61.56;99911.63;4994723;28;20052;-89
2022/02/14 08:09:30;;;;;;;4.47;3.47;;;;;;;-4.02;62.06;99910.75;4995239;28;20085;-89
2022/02/14 08:11:56;;;;;;;6.55;4.60;;;;;;;-3.94;62.02;99906.31;4947939;28;20469;-87
2022/02/14 08:14:22;;;;;;;6.85;4.22;;;;;;;-3.45;61.57;99910.88;5000146;28;20078;-89
2022/02/14 08:16:49;;;;;;;6.28;4.07;;;;;;;-3.69;60.85;99901.63;4984191;28;20510;-88
2022/02/14 08:19:16;;;;;;;5.18;3.67;;;;;;;-3.64;60.78;99902.44;4978544;28;20050;-86
2022/02/14 08:21:42;;;;;;;8.18;4.30;;;;;;;-3.66;60.90;99918.13;4977506;28;20069;-88
2022/02/14 08:24:08;;;;;;;6.07;4.30;;;;;;;-3.64;61.05;99919.88;4994304;28;20082;-88
2022/02/14 08:26:34;;;;;;;6.85;3.97;;;;;;;-3.75;60.90;99920.84;4993896;28;20077;-87
2022/02/14 08:29:01;;;;;;;9.27;4.55;;;;;;;-3.38;60.86;99909.91;4962350;28;20050;-86
2022/02/14 08:31:28;;;;;;;11.30;5.75;;;;;;;-3.11;60.55;99905.16;4977976;28;20046;-86
2022/02/14 08:33:57;;;;;;;9.15;5.15;;;;;;;-2.77;59.11;99910.72;4977353;28;20054;-83
2022/02/14 08:36:25;;;;;;;6.80;4.97;;;;;;;-2.81;59.09;99922.97;4993977;28;20096;-84
2022/02/14 08:38:52;;;;;;;5.90;4.80;;;;;;;-2.71;58.67;99921.94;4977396;28;20058;-86
2022/02/14 08:41:19;;;;;;;5.10;3.78;;;;;;;-3.10;58.32;99923.44;4994058;28;20042;-84
2022/02/14 08:43:48;;;;;;;6.70;4.40;;;;;;;-3.29;59.33;99927.22;4978752;28;20049;-90
2022/02/14 08:46:21;;;;;;;6.00;4.53;;;;;;;-3.17;59.03;99917.41;4978283;28;20046;-88
2022/02/14 08:48:50;;;;;;;8.85;5.43;;;;;;;-2.84;59.04;99930.88;4982214;28;20046;-83
2022/02/14 08:51:18;;;;;;;8.95;5.18;;;;;;;-2.64;58.11;99917.44;4995242;28;20077;-85
2022/02/14 08:53:44;;;;;;;4.13;3.17;;;;;;;-2.46;57.20;99919.75;4995881;28;20050;-85
2022/02/14 08:56:10;;;;;;;7.43;4.22;;;;;;;-2.61;57.42;99927.00;5011312;28;20042;-85
2022/02/14 08:58:39;;;;;;;7.32;5.18;;;;;;;-2.58;57.38;99911.25;5005611;28;20552;-87
2022/02/14 09:01:05;;;;;;;8.73;4.68;;;;;;;-2.23;57.39;99921.06;4977718;28;20057;-87
2022/02/14 09:03:31;;;;;;;7.13;4.40;;;;;;;-2.36;57.11;99912.59;4978037;28;20050;-87
2022/02/14 09:05:57;;;;;;;6.43;4.70;;;;;;;-2.03;56.84;99926.81;4977297;28;20054;-88
2022/02/14 09:08:24;;;;;;;6.78;4.90;;;;;;;-1.66;56.13;99919.94;4976916;28;20413;-88
2022/02/14 09:10:55;;;;;;;6.13;4.38;;;;;;;-1.56;55.49;99921.47;4993018;28;20045;-86
2022/02/14 09:13:21;;;;;;;7.22;4.80;;;;;;;-1.32;55.58;99925.31;4976989;28;20089;-86
2022/02/14 09:15:48;;;;;;;4.13;3.13;;;;;;;-1.63;54.40;99909.41;4995424;28;20069;-87
2022/02/14 09:18:15;;;;;;;6.57;4.90;;;;;;;-1.67;54.45;99923.47;4977132;28;20482;-85
2022/02/14 09:20:41;;;;;;;7.63;4.13;;;;;;;-0.97;53.76;99924.53;4992723;28;20045;-89
2022/02/14 09:23:07;;;;;;;10.18;5.00;;;;;;;-0.65;53.26;99938.63;4976555;28;20120;-87
2022/02/14 09:25:34;;;;;;;7.70;4.63;;;;;;;-1.01;52.32;99938.63;4993037;28;20109;-86
2022/02/14 09:28:01;;;;;;;7.05;4.10;;;;;;;-1.18;53.27;99943.38;4993710;28;20413;-85
2022/02/14 09:30:27;;;;;;;7.35;4.97;;;;;;;-1.19;53.28;99952.16;4976459;28;20089;-85
2022/02/14 09:32:55;;;;;;;6.65;4.32;;;;;;;-1.42;53.48;99945.66;4959876;28;21478;-86
2022/02/14 09:35:27;;;;;;;6.78;4.28;;;;;;;-1.51;54.02;99946.69;4991725;28;20058;-86
2022/02/14 09:38:00;;;;;;;7.10;5.15;;;;;;;-1.51;54.14;99944.06;5008580;28;20086;-85
2022/02/14 09:40:27;;;;;;;7.97;5.05;;;;;;;-1.17;54.43;99952.97;4960818;28;20101;-84
2022/02/14 09:42:54;;;;;;;7.25;5.40;;;;;;;-0.51;54.09;99962.78;4976444;28;20042;-87
2022/02/14 09:45:22;;;;;;;6.88;4.72;;;;;;;-1.12;52.73;99969.50;4976469;28;20358;-88
2022/02/14 09:47:57;;;;;;;8.17;5.20;;;;;;;-1.34;54.03;99964.69;4992676;28;20081;-86
2022/02/14 09:50:23;;;;;;;7.80;5.25;;;;;;;-1.75;55.28;99963.81;4992371;28;20278;-86
2022/02/14 09:52:48;;;;;;;7.97;5.50;;;;;;;-1.23;55.26;99977.59;4976207;28;20441;-86
2022/02/14 09:55:15;;;;;;;6.95;5.32;;;;;;;-0.83;53.52;99987.16;4993295;28;20046;-86
2022/02/14 09:57:41;;;;;;;6.93;4.88;;;;;;;-0.60;53.30;99968.25;4993834;28;20042;-86
2022/02/14 10:00:08;;;;;;;6.90;4.85;;;;;;;0.01;51.77;99974.56;4944750;28;20524;-86
2022/02/14 10:02:35;;;;;;;8.02;4.97;;;;;;;0.18;50.92;99966.22;4976424;28;20563;-85
2022/02/14 10:05:12;;;;;;;6.05;4.78;;;;;;;0.55;49.78;99968.66;4993452;28;20413;-87
2022/02/14 10:07:41;;;;;;;7.53;4.68;;;;;;;0.91;49.11;99979.00;4976964;28;20042;-84
2022/02/14 10:10:12;;;;;;;4.55;3.38;;;;;;;0.57;48.16;99979.16;4975981;28;20097;-87
2022/02/14 10:12:41;;;;;;;7.07;4.35;;;;;;;0.24;49.56;99985.31;4975614;28;20085;-86
2022/02/14 10:15:07;;;;;;;4.55;3.40;;;;;;;0.82;48.33;99977.50;4977452;28;20050;-86
2022/02/14 10:17:42;;;;;;;6.93;4.65;;;;;;;1.50;48.05;99992.03;4993080;28;20038;-86
2022/02/14 10:20:08;;;;;;;7.60;4.60;;;;;;;2.09;47.25;99988.31;4960918;28;20540;-85
2022/02/14 10:22:59;;;;;;;7.18;5.05;;;;;;;2.30;45.04;99984.94;4992827;28;20072;-85
2022/02/14 10:25:39;;;;;;;7.00;4.50;;;;;;;1.70;45.47;99972.97;4980880;28;20139;-85
2022/02/14 10:28:13;;;;;;;6.78;4.38;;;;;;;1.44;45.96;99976.47;4959789;28;20065;-84
2022/02/14 10:31:04;;;;;;;5.60;4.55;;;;;;;1.46;45.90;99995.69;4992046;28;20038;-89
2022/02/14 10:33:52;;;;;;;7.25;4.82;;;;;;;0.54;47.80;100000.28;4992899;28;20050;-84
2022/02/14 10:36:29;;;;;;;5.40;4.13;;;;;;;-0.16;49.20;99993.38;4997270;28;20478;-85
2022/02/14 10:38:56;;;;;;;7.05;4.10;;;;;;;-0.98;51.14;100004.13;4979523;28;20054;-86
2022/02/14 10:41:23;;;;;;;7.50;4.45;;;;;;;-1.59;52.81;100003.66;4947440;28;20053;-84
2022/02/14 10:43:49;;;;;;;5.78;4.00;;;;;;;-2.05;54.18;100019.41;4997245;28;20493;-85
2022/02/14 10:46:20;;;;;;;6.00;3.95;;;;;;;-2.29;55.30;100002.38;4995638;28;20136;-86
2022/02/14 10:48:46;;;;;;;8.77;5.28;;;;;;;-2.16;55.05;99995.16;4995538;28;20046;-85
2022/02/14 10:51:18;;;;;;;10.25;5.00;;;;;;;-1.87;54.39;99992.00;4997025;28;20072;-85
2022/02/14 10:53:45;;;;;;;3.70;2.75;;;;;;;-1.96;54.44;100008.75;4979977;28;20505;-86
2022/02/14 10:56:13;;;;;;;6.72;4.97;;;;;;;-1.87;54.65;100003.34;4995389;28;20042;-88
2022/02/14 10:58:39;;;;;;;6.75;4.35;;;;;;;-1.84;54.46;100005.94;4963601;28;20120;-86
2022/02/14 11:01:25;;;;;;;6.97;4.32;;;;;;;-1.91;54.81;99998.22;4997504;28;20074;-88
2022/02/14 11:03:52;;;;;;;7.78;4.30;;;;;;;-1.90;54.64;100007.78;4927976;29;20134;-90
2022/02/14 11:06:18;;;;;;;7.15;4.18;;;;;;;-1.68;54.60;100011.72;4942532;29;20562;-86
2022/02/14 11:08:44;;;;;;;5.55;4.07;;;;;;;-1.59;53.98;100003.66;4950527;29;20066;-86
2022/02/14 11:11:11;;;;;;;6.85;4.30;;;;;;;-1.85;53.98;100012.03;4950500;29;20507;-86
2022/02/14 11:13:39;;;;;;;9.30;4.97;;;;;;;-1.89;55.01;100004.28;4910578;29;20491;-88
2022/02/14 11:16:05;;;;;;;6.50;4.85;;;;;;;-1.47;53.97;100016.56;4910274;29;20138;-89
2022/02/14 11:18:38;;;;;;;8.18;4.35;;;;;;;-1.60;53.45;100014.19;4959168;29;20077;-86
2022/02/14 11:21:05;;;;;;;5.05;3.90;;;;;;;-2.06;54.56;100020.31;4939855;29;20039;-88
2022/02/14 11:23:53;;;;;;;7.07;3.78;;;;;;;-1.83;54.84;100018.13;4954487;29;20082;-87
2022/02/14 11:26:26;;;;;;;6.23;4.27;;;;;;;-1.03;53.26;100011.25;4928063;29;20055;-86
2022/02/14 11:29:13;;;;;;;5.63;4.40;;;;;;;-0.58;52.43;100018.97;4940997;29;20078;-86
2022/02/14 11:31:39;;;;;;;6.95;4.10;;;;;;;0.00;50.67;100022.78;4959009;29;20617;-85